Time;durP1;ratioP1;P1;durP2;ratioP2;P2;SDS_P1;SDS_P2;PMS_P1;PMS_P2;Temp;Humidity;BMP_temperature;BMP_pressure;BME280_temperature;BME280_humidity;BME280_pressure;Samples;Min_cycle;Max_cycle;Signal;HPM_P1;HPM_P2
2021/03/23 00:00:32;;;;;;;14.93;6.17;;;26.30;1945.60;;;;;;5055453;28;20030;-61
2021/03/23 00:03:11;;;;;;;10.57;6.50;;;26.30;1945.60;;;;;;5095246;28;20034;-70
2021/03/23 00:05:38;;;;;;;12.17;6.27;;;26.30;1945.60;;;;;;5096556;28;20021;-61
2021/03/23 00:08:28;;;;;;;10.43;6.13;;;26.30;1945.60;;;;;;5090860;28;20481;-61
2021/03/23 00:10:56;;;;;;;11.40;6.63;;;26.30;1945.60;;;;;;5075561;28;20404;-61
2021/03/23 00:13:23;;;;;;;12.70;5.97;;;26.30;1945.60;;;;;;5058019;28;20068;-61
2021/03/23 00:15:49;;;;;;;14.23;6.80;;;26.30;1945.60;;;;;;5076039;28;20050;-70
2021/03/23 00:18:16;;;;;;;12.10;6.47;;;26.30;1945.60;;;;;;5076165;28;20021;-70
2021/03/23 00:20:43;;;;;;;11.63;6.23;;;26.30;1945.60;;;;;;5075699;28;20048;-72
2021/03/23 00:23:09;;;;;;;14.97;6.73;;;26.20;1945.60;;;;;;5084912;28;20058;-61
2021/03/23 00:25:36;;;;;;;14.50;7.23;;;26.20;1945.60;;;;;;5096145;28;20384;-61
2021/03/23 00:28:03;;;;;;;12.53;6.10;;;26.20;1971.20;;;;;;5096008;28;20028;-70
2021/03/23 00:30:30;;;;;;;12.00;6.40;;;26.00;1971.20;;;;;;5096049;28;20032;-62
2021/03/23 00:32:55;;;;;;;14.57;6.37;;;25.90;1996.80;;;;;;5095878;28;20032;-63
2021/03/23 00:35:22;;;;;;;15.87;6.63;;;25.90;1996.80;;;;;;5080855;28;20043;-72
2021/03/23 00:37:51;;;;;;;15.63;6.37;;;25.80;1996.80;;;;;;5076639;28;20416;-72
2021/03/23 00:40:21;;;;;;;16.97;6.93;;;25.90;1996.80;;;;;;5075513;28;20388;-72
2021/03/23 00:42:47;;;;;;;14.97;7.10;;;25.80;1996.80;;;;;;5063603;28;20035;-69
2021/03/23 00:45:14;;;;;;;14.37;6.87;;;25.80;1996.80;;;;;;5077432;28;20111;-70
2021/03/23 00:47:40;;;;;;;14.70;6.97;;;25.80;1996.80;;;;;;5095908;28;20024;-71
2021/03/23 00:50:08;;;;;;;15.77;7.30;;;25.80;1996.80;;;;;;5095808;28;20483;-67
2021/03/23 00:52:34;;;;;;;16.83;6.73;;;25.80;1996.80;;;;;;5094468;28;20028;-62
2021/03/23 00:55:00;;;;;;;14.87;7.30;;;25.80;1996.80;;;;;;5075242;28;20021;-69
2021/03/23 00:57:26;;;;;;;19.67;8.07;;;25.80;1996.80;;;;;;5057227;28;20025;-71
2021/03/23 00:59:51;;;;;;;18.27;7.10;;;25.80;1996.80;;;;;;5075123;28;20024;-71
2021/03/23 01:02:18;;;;;;;17.73;6.83;;;25.90;1971.20;;;;;;5075129;28;20043;-72
2021/03/23 01:04:44;;;;;;;18.43;7.03;;;26.00;1971.20;;;;;;5075151;28;20020;-62
2021/03/23 01:07:10;;;;;;;13.23;6.10;;;26.00;1971.20;;;;;;5075086;28;20473;-71
2021/03/23 01:09:36;;;;;;;14.77;5.93;;;26.00;1971.20;;;;;;5074961;28;20099;-61
2021/03/23 01:12:02;;;;;;;14.93;6.37;;;25.90;1971.20;;;;;;5074966;28;20438;-71
2021/03/23 01:14:28;;;;;;;13.77;5.60;;;25.80;1996.80;;;;;;5056310;28;20522;-70
2021/03/23 01:16:54;;;;;;;13.37;6.20;;;25.90;1996.80;;;;;;5056910;28;20025;-60
2021/03/23 01:19:20;;;;;;;14.03;7.10;;;25.80;1996.80;;;;;;5093816;28;20020;-61
2021/03/23 01:21:46;;;;;;;14.70;6.93;;;25.80;1996.80;;;;;;5094899;28;20516;-61
2021/03/23 01:24:12;;;;;;;16.37;7.50;;;25.90;1996.80;;;;;;5094902;28;20090;-61
2021/03/23 01:26:37;;;;;;;13.83;7.03;;;25.80;1996.80;;;;;;5094950;28;20043;-61
2021/03/23 01:29:03;;;;;;;14.70;6.80;;;25.70;1996.80;;;;;;5094767;28;20024;-65
2021/03/23 01:31:29;;;;;;;16.37;7.03;;;25.70;1996.80;;;;;;5094728;28;20027;-65
2021/03/23 01:33:55;;;;;;;12.63;5.33;;;25.70;1996.80;;;;;;5094817;28;20024;-60
2021/03/23 01:36:21;;;;;;;11.23;5.60;;;25.60;1996.80;;;;;;5094611;28;20020;-64
2021/03/23 01:38:46;;;;;;;11.17;6.47;;;25.60;1996.80;;;;;;5095928;28;20024;-60
2021/03/23 01:41:12;;;;;;;15.93;6.00;;;0.90;1996.80;;;;;;5115185;28;20424;-66
2021/03/23 01:43:38;;;;;;;16.50;7.00;;;0.80;2022.40;;;;;;5114871;28;20095;-65
2021/03/23 01:46:41;;;;;;;15.03;6.67;;;0.80;2022.40;;;;;;5096571;28;20069;-65
2021/03/23 01:49:12;;;;;;;13.87;6.67;;;0.80;2022.40;;;;;;5114890;28;20126;-70
2021/03/23 01:51:40;;;;;;;15.17;6.57;;;0.80;2022.40;;;;;;5114790;28;20073;-69
2021/03/23 01:54:12;;;;;;;14.23;5.10;;;0.80;2022.40;;;;;;5114674;28;20037;-66
2021/03/23 01:56:38;;;;;;;8.10;4.97;;;0.80;2022.40;;;;;;5114778;28;20457;-62
2021/03/23 01:59:08;;;;;;;10.77;4.67;;;0.80;2022.40;;;;;;5104515;28;20077;-65
2021/03/23 02:01:34;;;;;;;9.07;4.77;;;0.80;2022.40;;;;;;5073926;28;20028;-61
2021/03/23 02:04:01;;;;;;;12.13;5.10;;;0.80;2022.40;;;;;;5073017;28;20043;-61
2021/03/23 02:06:32;;;;;;;12.30;4.90;;;0.80;2022.40;;;;;;5073561;28;20473;-65
2021/03/23 02:08:59;;;;;;;8.00;4.57;;;0.80;2022.40;;;;;;5073751;28;20024;-61
2021/03/23 02:11:26;;;;;;;9.10;4.47;;;0.80;2022.40;;;;;;5072292;28;20055;-61
2021/03/23 02:13:53;;;;;;;8.63;4.00;;;0.80;2022.40;;;;;;5073641;28;20028;-64
2021/03/23 02:16:20;;;;;;;8.87;4.57;;;0.70;2048.00;;;;;;5055838;28;20427;-62
2021/03/23 02:18:46;;;;;;;11.17;4.83;;;0.80;2048.00;;;;;;5073692;28;20054;-65
2021/03/23 02:21:17;;;;;;;9.00;4.23;;;0.80;2022.40;;;;;;5098614;22;20134;-63
2021/03/23 02:23:51;;;;;;;11.73;4.47;;;0.80;2022.40;;;;;;5094003;28;20032;-62
2021/03/23 02:26:30;;;;;;;9.63;4.60;;;0.70;2048.00;;;;;;5093151;28;20032;-63
2021/03/23 02:28:57;;;;;;;9.83;4.93;;;0.70;2048.00;;;;;;5093912;28;20032;-63
2021/03/23 02:31:40;;;;;;;11.67;5.07;;;0.50;2048.00;;;;;;5093732;28;20035;-68
2021/03/23 02:34:09;;;;;;;6.13;4.20;;;0.50;2073.60;;;;;;5093799;28;20028;-63
2021/03/23 02:36:37;;;;;;;7.63;4.13;;;0.50;2073.60;;;;;;5093675;28;20032;-62
2021/03/23 02:39:05;;;;;;;9.43;4.43;;;0.50;2048.00;;;;;;5093659;28;20073;-67
2021/03/23 02:41:31;;;;;;;9.77;4.40;;;0.50;2048.00;;;;;;5093616;28;20118;-67
2021/03/23 02:43:56;;;;;;;8.57;3.90;;;0.50;2073.60;;;;;;5093731;28;20055;-62
2021/03/23 02:46:23;;;;;;;8.87;3.90;;;0.50;2073.60;;;;;;5093656;28;20353;-63
2021/03/23 02:48:49;;;;;;;10.37;4.67;;;0.50;2073.60;;;;;;5093621;28;20024;-63
2021/03/23 02:51:17;;;;;;;8.83;4.00;;;0.50;2073.60;;;;;;5093607;28;20028;-63
2021/03/23 02:53:47;;;;;;;9.33;4.13;;;0.50;2073.60;;;;;;5093530;28;20482;-67
2021/03/23 02:56:14;;;;;;;9.43;4.07;;;0.50;2073.60;;;;;;5075375;28;20102;-63
2021/03/23 02:58:40;;;;;;;11.57;5.27;;;0.50;2073.60;;;;;;5093405;28;20483;-68
2021/03/23 03:01:06;;;;;;;8.60;4.50;;;0.50;2073.60;;;;;;5093599;28;20027;-64
2021/03/23 03:03:33;;;;;;;12.37;4.60;;;0.50;2073.60;;;;;;5093636;28;20032;-62
2021/03/23 03:05:59;;;;;;;9.97;4.50;;;0.60;2048.00;;;;;;5093669;28;20028;-66
2021/03/23 03:08:25;;;;;;;8.33;4.60;;;0.60;2048.00;;;;;;5093365;28;20035;-63
2021/03/23 03:10:52;;;;;;;7.97;4.00;;;0.70;2048.00;;;;;;5093304;28;20032;-62
2021/03/23 03:13:22;;;;;;;8.30;4.23;;;0.70;2048.00;;;;;;5093222;28;20029;-63
2021/03/23 03:15:50;;;;;;;11.33;4.40;;;0.70;2048.00;;;;;;5093332;28;20051;-62
2021/03/23 03:18:16;;;;;;;9.97;4.37;;;0.80;2022.40;;;;;;5093263;28;20038;-62
2021/03/23 03:20:43;;;;;;;10.80;5.67;;;0.80;2022.40;;;;;;5092976;28;20089;-63
2021/03/23 03:23:09;;;;;;;11.37;5.23;;;0.70;2022.40;;;;;;5093239;28;20031;-67
2021/03/23 03:25:35;;;;;;;10.97;4.93;;;0.80;2048.00;;;;;;5093324;28;20024;-64
2021/03/23 03:28:04;;;;;;;10.73;5.50;;;0.80;2022.40;;;;;;5093198;28;20043;-67
2021/03/23 03:30:32;;;;;;;10.73;5.33;;;0.90;2022.40;;;;;;5093144;28;20542;-67
2021/03/23 03:32:59;;;;;;;12.40;5.70;;;0.80;2022.40;;;;;;5093055;28;20031;-66
2021/03/23 03:35:31;;;;;;;10.70;5.73;;;0.70;2022.40;;;;;;5093101;28;20481;-65
2021/03/23 03:37:58;;;;;;;11.60;5.60;;;0.60;2022.40;;;;;;5095789;28;20602;-63
2021/03/23 03:40:33;;;;;;;15.07;7.20;;;0.50;2048.00;;;;;;5078811;28;20103;-67
2021/03/23 03:42:59;;;;;;;18.47;8.07;;;0.30;2048.00;;;;;;5096957;28;20021;-67
2021/03/23 03:45:27;;;;;;;23.87;9.13;;;0.50;2048.00;;;;;;5096978;28;20024;-65
2021/03/23 03:47:54;;;;;;;19.93;8.57;;;0.40;2048.00;;;;;;5096905;28;20028;-67
2021/03/23 03:50:22;;;;;;;15.70;7.87;;;0.40;2048.00;;;;;;5097481;28;20023;-62
2021/03/23 03:52:49;;;;;;;13.60;7.73;;;0.30;2048.00;;;;;;5096852;28;20032;-63
2021/03/23 03:55:17;;;;;;;15.23;8.67;;;0.30;2048.00;;;;;;5096843;28;20059;-64
2021/03/23 03:57:43;;;;;;;18.47;11.57;;;0.20;2048.00;;;;;;5096832;28;20020;-67
2021/03/23 04:00:10;;;;;;;22.03;11.93;;;0.10;2048.00;;;;;;5096903;28;20103;-68
2021/03/23 04:02:36;;;;;;;17.67;9.00;;;0.10;2048.00;;;;;;5096696;28;20024;-63
2021/03/23 04:05:05;;;;;;;16.97;8.97;;;0.20;2048.00;;;;;;5096775;28;20100;-67
2021/03/23 04:07:31;;;;;;;15.90;8.00;;;0.10;2048.00;;;;;;5097179;28;20065;-62
2021/03/23 04:09:57;;;;;;;14.77;7.17;;;0.10;2048.00;;;;;;5096648;28;20023;-62
2021/03/23 04:12:23;;;;;;;13.20;6.20;;;0.10;2048.00;;;;;;5078278;28;20032;-62
2021/03/23 04:14:49;;;;;;;14.37;7.30;;;0.00;2048.00;;;;;;5096791;28;20025;-63
2021/03/23 04:17:15;;;;;;;15.80;7.60;;;12.90;2073.60;;;;;;5096476;28;20388;-65
2021/03/23 04:19:41;;;;;;;15.70;7.37;;;12.90;2073.60;;;;;;5096253;28;20522;-62
2021/03/23 04:22:07;;;;;;;15.63;7.43;;;12.90;2073.60;;;;;;5096465;28;20028;-68
2021/03/23 04:24:33;;;;;;;19.97;7.53;;;12.90;2073.60;;;;;;5096576;28;20054;-65
2021/03/23 04:26:59;;;;;;;12.90;7.10;;;12.90;2073.60;;;;;;5096441;28;20085;-62
2021/03/23 04:29:25;;;;;;;12.80;6.87;;;12.90;2073.60;;;;;;5096272;28;20048;-65
2021/03/23 04:31:51;;;;;;;14.33;7.47;;;12.90;2073.60;;;;;;5096409;28;20032;-62
2021/03/23 04:34:17;;;;;;;15.37;8.13;;;12.90;2073.60;;;;;;5096048;28;20020;-62
2021/03/23 04:36:43;;;;;;;17.83;8.40;;;13.00;2073.60;;;;;;5096192;28;20016;-67
2021/03/23 04:39:12;;;;;;;15.50;8.20;;;12.90;2073.60;;;;;;5096220;28;20020;-62
2021/03/23 04:41:39;;;;;;;16.50;8.77;;;12.90;2073.60;;;;;;5095937;28;20472;-62
2021/03/23 04:44:06;;;;;;;18.70;9.23;;;12.90;2073.60;;;;;;5095886;28;20063;-66
2021/03/23 04:46:32;;;;;;;16.70;8.37;;;12.90;2048.00;;;;;;5095911;28;20069;-67
2021/03/23 04:48:58;;;;;;;16.37;7.90;;;0.00;2048.00;;;;;;5095137;28;20034;-63
2021/03/23 04:51:27;;;;;;;13.97;6.57;;;0.00;2048.00;;;;;;5096016;28;20491;-62
2021/03/23 04:54:08;;;;;;;17.03;8.13;;;0.10;2048.00;;;;;;5095786;28;20463;-62
2021/03/23 04:56:44;;;;;;;14.57;7.20;;;0.10;2022.40;;;;;;5095886;28;20020;-62
2021/03/23 04:59:10;;;;;;;14.80;7.43;;;0.10;2048.00;;;;;;5096042;28;20071;-62
2021/03/23 05:01:38;;;;;;;16.23;7.47;;;0.20;2022.40;;;;;;5077440;28;20020;-62
2021/03/23 05:04:07;;;;;;;14.20;7.37;;;0.10;2022.40;;;;;;5095612;28;20109;-62
2021/03/23 05:06:33;;;;;;;13.97;7.10;;;0.20;2022.40;;;;;;5095520;28;20032;-65
2021/03/23 05:08:59;;;;;;;12.53;7.20;;;0.20;2022.40;;;;;;5095489;28;20035;-62
2021/03/23 05:11:28;;;;;;;13.87;7.57;;;0.40;2022.40;;;;;;5095569;28;20076;-63
2021/03/23 05:13:54;;;;;;;16.77;7.53;;;0.30;2022.40;;;;;;5095381;28;20027;-67
2021/03/23 05:16:21;;;;;;;13.50;8.10;;;0.40;2022.40;;;;;;5095332;28;20081;-62
2021/03/23 05:18:47;;;;;;;14.77;7.50;;;0.50;2022.40;;;;;;5095276;28;20051;-63
2021/03/23 05:21:13;;;;;;;13.13;7.47;;;0.40;2022.40;;;;;;5094901;28;20040;-67
2021/03/23 05:23:39;;;;;;;19.13;9.03;;;0.30;2048.00;;;;;;5095157;28;20027;-63
2021/03/23 05:26:06;;;;;;;15.53;9.47;;;0.30;2048.00;;;;;;5095032;28;20034;-63
2021/03/23 05:28:32;;;;;;;18.00;8.87;;;0.30;2048.00;;;;;;5094897;28;20017;-67
2021/03/23 05:30:59;;;;;;;19.13;9.17;;;0.30;2048.00;;;;;;5094926;28;20028;-62
2021/03/23 05:33:26;;;;;;;15.27;8.00;;;0.40;2048.00;;;;;;5094806;28;20495;-62
2021/03/23 05:35:56;;;;;;;16.47;8.40;;;0.50;2022.40;;;;;;5094786;28;20492;-62
2021/03/23 05:38:23;;;;;;;14.43;7.70;;;0.50;2022.40;;;;;;5094854;28;20024;-67
2021/03/23 05:41:05;;;;;;;14.80;8.13;;;0.60;2022.40;;;;;;5094707;28;20050;-67
2021/03/23 05:43:33;;;;;;;18.03;9.10;;;0.70;2022.40;;;;;;5095027;28;20020;-67
2021/03/23 05:46:23;;;;;;;15.30;8.23;;;0.80;2022.40;;;;;;5095163;28;20108;-67
2021/03/23 05:49:07;;;;;;;18.27;9.83;;;0.90;1996.80;;;;;;5076394;28;20031;-67
2021/03/23 05:51:41;;;;;;;19.15;9.73;;;25.60;1996.80;;;;;;5094597;28;20027;-63
2021/03/23 05:54:29;;;;;;;16.27;10.03;;;25.80;1996.80;;;;;;5094435;28;20036;-67
2021/03/23 05:56:58;;;;;;;19.30;9.93;;;25.80;1996.80;;;;;;5094491;28;20035;-62
2021/03/23 05:59:33;;;;;;;24.27;12.30;;;25.90;1996.80;;;;;;5094718;28;20024;-67
2021/03/23 06:02:07;;;;;;;25.73;11.57;;;26.00;1996.80;;;;;;5094476;28;20385;-62
2021/03/23 06:04:45;;;;;;;;;;;26.10;1971.20;;;;;;5095185;28;20058;-62
2021/03/23 06:07:14;;;;;;;18.57;9.30;;;26.10;1971.20;;;;;;5094368;28;20372;-62
2021/03/23 06:09:42;;;;;;;18.30;9.40;;;26.20;1971.20;;;;;;5094515;28;20034;-63
2021/03/23 06:12:27;;;;;;;17.17;9.27;;;26.30;1971.20;;;;;;5094195;28;20028;-63
2021/03/23 06:15:12;;;;;;;16.40;8.90;;;26.30;1945.60;;;;;;5094345;28;20056;-67
2021/03/23 06:18:01;;;;;;;17.73;8.53;;;26.50;1945.60;;;;;;5094186;28;20066;-63
2021/03/23 06:20:50;;;;;;;14.33;8.67;;;51.20;1971.20;;;;;;5094131;28;20075;-63
2021/03/23 06:23:37;;;;;;;18.40;10.30;;;51.20;1945.60;;;;;;5094426;28;20024;-62
2021/03/23 06:26:14;;;;;;;20.83;11.10;;;51.40;1945.60;;;;;;5094385;28;20028;-63
2021/03/23 06:29:02;;;;;;;20.03;10.13;;;51.50;1945.60;;;;;;5075936;28;20469;-62
2021/03/23 06:31:55;;;;;;;22.13;11.17;;;51.70;1920.00;;;;;;5093925;28;20020;-62
2021/03/23 06:34:26;;;;;;;45.80;17.57;;;51.80;1920.00;;;;;;5094151;28;20362;-67
2021/03/23 06:36:53;;;;;;;46.17;18.27;;;51.90;1920.00;;;;;;5094031;28;20048;-67
2021/03/23 06:39:19;;;;;;;83.80;31.13;;;52.00;1868.80;;;;;;5093696;28;20020;-66
2021/03/23 06:41:54;;;;;;;86.20;33.10;;;76.80;1894.40;;;;;;5093679;28;20425;-64
2021/03/23 06:44:24;;;;;;;75.67;29.90;;;102.40;1792.00;;;;;;5093586;28;20022;-67
2021/03/23 06:46:52;;;;;;;78.50;38.87;;;179.80;1433.60;;;;;;5075617;28;20020;-67
2021/03/23 06:49:27;;;;;;;39.28;24.05;;;256.20;1228.80;;;;;;5093557;28;20027;-67
2021/03/23 06:52:02;;;;;;;28.48;18.77;;;308.00;998.40;;;;;;5093497;28;20115;-63
2021/03/23 06:54:34;;;;;;;38.22;25.58;;;358.50;921.60;;;;;;5075440;28;20031;-65
2021/03/23 06:57:12;;;;;;;27.27;17.90;;;384.80;793.60;;;;;;5075412;28;20024;-69
2021/03/23 07:00:15;;;;;;;18.65;10.75;;;435.90;742.40;;;;;;5093819;28;20020;-67
2021/03/23 07:02:51;;;;;;;15.88;9.70;;;486.60;691.20;;;;;;5093458;28;20468;-65
2021/03/23 07:05:22;;;;;;;13.52;8.20;;;512.50;665.60;;;;;;5093511;28;20372;-67
2021/03/23 07:07:53;;;;;;;16.52;10.35;;;538.50;588.80;;;;;;5075793;28;20031;-65
2021/03/23 07:10:27;;;;;;;12.93;8.65;;;563.60;614.40;;;;;;5093368;28;20368;-66
2021/03/23 07:12:53;;;;;;;13.55;8.25;;;588.80;537.60;;;;;;5095716;28;20059;-68
2021/03/23 07:15:28;;;;;;;11.98;7.97;;;614.40;486.40;;;;;;5097567;28;20024;-67
2021/03/23 07:17:58;;;;;;;14.40;8.82;;;614.40;486.40;;;;;;5097421;28;20024;-68
2021/03/23 07:20:33;;;;;;;13.00;9.07;;;614.70;460.80;;;;;;5097249;28;20040;-68
2021/03/23 07:23:02;;;;;;;12.57;8.82;;;615.30;435.20;;;;;;5097399;28;20111;-68
2021/03/23 07:25:43;;;;;;;9.15;6.70;;;640.10;409.60;;;;;;5097878;28;20020;-66
2021/03/23 07:28:33;;;;;;;11.10;7.55;;;640.70;384.00;;;;;;5097631;28;20035;-67
2021/03/23 07:31:38;;;;;;;9.70;6.82;;;666.00;384.00;;;;;;5097553;28;20031;-65
2021/03/23 07:34:28;;;;;;;10.82;6.15;;;666.20;384.00;;;;;;5055554;28;20445;-68
2021/03/23 07:37:04;;;;;;;9.52;6.50;;;665.60;409.60;;;;;;5097325;28;20028;-66
2021/03/23 07:39:44;;;;;;;15.25;8.55;;;589.40;486.40;;;;;;5097341;28;20487;-69
2021/03/23 07:42:25;;;;;;;10.10;6.70;;;537.70;537.60;;;;;;5097250;28;20099;-64
2021/03/23 07:44:54;;;;;;;12.75;6.80;;;461.50;614.40;;;;;;5097327;28;20024;-68
2021/03/23 07:47:23;;;;;;;10.73;7.20;;;435.70;640.00;;;;;;5097163;28;20048;-63
2021/03/23 07:50:01;;;;;;;12.88;7.47;;;409.80;691.20;;;;;;5097070;28;20016;-69
2021/03/23 07:52:48;;;;;;;11.93;6.03;;;384.10;742.40;;;;;;5096877;28;20072;-64
2021/03/23 07:55:19;;;;;;;13.30;5.35;;;358.40;793.60;;;;;;5096949;28;20407;-64
2021/03/23 07:58:04;;;;;;;14.40;7.60;;;333.40;819.20;;;;;;5096902;28;20024;-63
2021/03/23 08:00:58;;;;;;;15.88;8.93;;;333.00;870.40;;;;;;5096640;28;20498;-63
2021/03/23 08:03:33;;;;;;;15.30;7.45;;;307.70;870.40;;;;;;5088953;28;20435;-63
2021/03/23 08:06:23;;;;;;;13.85;7.00;;;307.40;921.60;;;;;;5090658;28;20032;-76
2021/03/23 08:09:17;;;;;;;12.02;8.13;;;307.20;947.20;;;;;;5085515;28;20056;-64
2021/03/23 08:11:50;;;;;;;13.88;6.90;;;282.40;921.60;;;;;;5076358;28;20135;-63
2021/03/23 08:14:46;;;;;;;15.10;6.10;;;282.10;921.60;;;;;;5076289;28;20115;-70
2021/03/23 08:17:51;;;;;;;25.85;14.98;;;282.10;921.60;;;;;;5080763;28;20024;-69
2021/03/23 08:20:57;;;;;;;25.60;15.13;;;281.90;947.20;;;;;;5068398;28;20404;-69
2021/03/23 08:23:31;;;;;;;16.10;10.70;;;256.70;947.20;;;;;;5101337;28;20081;-64
2021/03/23 08:26:29;;;;;;;10.73;5.90;;;256.70;972.80;;;;;;5093725;28;20105;-67
2021/03/23 08:29:03;;;;;;;11.85;6.43;;;256.50;947.20;;;;;;5094600;28;20024;-70
2021/03/23 08:31:44;;;;;;;15.93;7.93;;;256.40;972.80;;;;;;5102625;28;20103;-71
2021/03/23 08:34:57;;;;;;;13.05;6.10;;;256.30;972.80;;;;;;5100848;28;20031;-68
2021/03/23 08:37:41;;;;;;;20.77;9.40;;;256.20;998.40;;;;;;4998044;28;20515;-67
2021/03/23 08:40:43;;;;;;;104.20;58.42;;;256.20;998.40;;;;;;4996749;28;20044;-68
2021/03/23 08:43:16;;;;;;;135.88;70.88;;;256.30;1024.00;;;;;;5001314;28;20175;-69
2021/03/23 08:45:47;;;;;;;118.40;61.47;;;256.30;1024.00;;;;;;5012055;28;20129;-69
2021/03/23 08:48:25;;;;;;;55.45;29.42;;;256.30;998.40;;;;;;5012818;28;20422;-67
2021/03/23 08:50:57;;;;;;;70.38;34.63;;;256.10;998.40;;;;;;5012124;28;20364;-69
2021/03/23 08:53:29;;;;;;;93.93;47.28;;;256.10;1024.00;;;;;;5012440;28;20121;-69
2021/03/23 08:55:55;;;;;;;61.63;29.80;;;256.10;1049.60;;;;;;5004625;28;20027;-68
2021/03/23 08:58:45;;;;;;;11.10;5.85;;;256.00;1024.00;;;;;;5004134;28;20022;-67
2021/03/23 09:01:29;;;;;;;15.30;8.18;;;231.10;998.40;;;;;;5013073;28;20030;-68
2021/03/23 09:04:04;;;;;;;25.75;12.20;;;231.10;1049.60;;;;;;5003660;28;20040;-68
2021/03/23 09:06:53;;;;;;;32.00;18.45;;;231.10;1049.60;;;;;;4981992;28;20034;-68
2021/03/23 09:09:30;;;;;;;27.80;14.75;;;231.10;1075.20;;;;;;5016511;28;20137;-68
2021/03/23 09:12:15;;;;;;;15.88;9.50;;;231.30;998.40;;;;;;5018082;28;20047;-67
2021/03/23 09:15:19;;;;;;;20.33;11.60;;;231.30;1024.00;;;;;;5088941;28;20118;-66
2021/03/23 09:18:06;;;;;;;13.55;7.72;;;256.10;1024.00;;;;;;5094623;28;20134;-62
2021/03/23 09:20:35;;;;;;;11.32;6.18;;;256.00;1024.00;;;;;;5093077;28;20373;-64
2021/03/23 09:23:23;;;;;;;10.30;5.40;;;256.10;1024.00;;;;;;5092055;28;20607;-66
2021/03/23 09:25:58;;;;;;;14.27;5.63;;;256.20;998.40;;;;;;5093678;28;20040;-67
2021/03/23 09:28:33;;;;;;;11.60;5.80;;;256.00;998.40;;;;;;5077559;28;20073;-67
2021/03/23 09:31:02;;;;;;;15.57;7.28;;;256.10;998.40;;;;;;5079025;28;20020;-68
2021/03/23 09:33:42;;;;;;;12.30;7.28;;;256.30;998.40;;;;;;5092130;28;20541;-68
2021/03/23 09:36:12;;;;;;;16.38;9.40;;;256.30;972.80;;;;;;5085651;28;20379;-68
2021/03/23 09:38:42;;;;;;;12.57;7.43;;;256.40;972.80;;;;;;5082855;28;20020;-68
2021/03/23 09:41:20;;;;;;;47.85;26.90;;;256.30;972.80;;;;;;5092273;28;20169;-68
2021/03/23 09:43:50;;;;;;;19.08;14.35;;;256.60;972.80;;;;;;5094242;28;20154;-65
2021/03/23 09:46:22;;;;;;;7.22;4.53;;;256.50;947.20;;;;;;5093850;28;20013;-67
2021/03/23 09:48:55;;;;;;;10.07;4.68;;;256.60;947.20;;;;;;5094213;28;20521;-68
2021/03/23 09:51:32;;;;;;;56.17;42.65;;;256.50;947.20;;;;;;5093620;28;20388;-67
2021/03/23 09:53:59;;;;;;;15.65;6.65;;;256.50;947.20;;;;;;5094360;28;20093;-65
2021/03/23 09:56:35;;;;;;;9.65;6.55;;;256.60;972.80;;;;;;5086350;28;20035;-68
2021/03/23 09:59:10;;;;;;;17.27;11.45;;;256.60;947.20;;;;;;5091715;28;20515;-78
2021/03/23 10:01:49;;;;;;;19.85;10.05;;;256.70;921.60;;;;;;5093761;28;20024;-68
2021/03/23 10:04:28;;;;;;;13.77;7.43;;;256.60;947.20;;;;;;5081968;28;20070;-68
2021/03/23 10:06:56;;;;;;;19.50;10.18;;;256.50;947.20;;;;;;5080751;28;20016;-67
2021/03/23 10:09:28;;;;;;;27.17;13.70;;;256.70;972.80;;;;;;5073972;28;20500;-63
2021/03/23 10:11:55;;;;;;;30.17;14.52;;;256.70;972.80;;;;;;5093227;28;20046;-67
2021/03/23 10:14:34;;;;;;;12.68;6.82;;;256.80;947.20;;;;;;5093026;28;20031;-66
2021/03/23 10:17:05;;;;;;;13.10;7.82;;;256.50;947.20;;;;;;5093625;28;20027;-66
2021/03/23 10:19:43;;;;;;;11.27;8.27;;;256.30;972.80;;;;;;5093022;28;20040;-65
2021/03/23 10:22:15;;;;;;;12.50;5.90;;;256.20;972.80;;;;;;5088218;28;20481;-68
2021/03/23 10:24:46;;;;;;;13.95;5.22;;;256.30;972.80;;;;;;5087691;28;20029;-65
2021/03/23 10:27:19;;;;;;;12.25;5.43;;;256.50;972.80;;;;;;5081996;28;20017;-67
2021/03/23 10:30:03;;;;;;;12.52;7.88;;;256.50;947.20;;;;;;5072804;28;20040;-66
2021/03/23 10:32:41;;;;;;;20.70;12.07;;;256.60;947.20;;;;;;5073092;28;20039;-63
2021/03/23 10:35:18;;;;;;;14.07;9.13;;;256.80;921.60;;;;;;5090681;28;20380;-68
2021/03/23 10:37:44;;;;;;;20.38;12.95;;;256.80;896.00;;;;;;5088317;28;20582;-67
2021/03/23 10:40:40;;;;;;;26.73;12.18;;;256.80;921.60;;;;;;5086387;28;20476;-68
2021/03/23 10:43:27;;;;;;;23.08;11.13;;;256.90;921.60;;;;;;5086214;28;20025;-67
2021/03/23 10:45:53;;;;;;;18.35;8.43;;;281.70;972.80;;;;;;5083029;28;20510;-68
2021/03/23 10:48:25;;;;;;;12.65;7.53;;;281.80;972.80;;;;;;5062105;28;20076;-68
2021/03/23 10:51:13;;;;;;;34.13;18.27;;;281.90;972.80;;;;;;5086209;28;20557;-68
2021/03/23 10:53:56;;;;;;;17.48;10.57;;;282.00;972.80;;;;;;5072633;28;20508;-67
2021/03/23 10:56:22;;;;;;;15.18;7.13;;;282.00;947.20;;;;;;5072692;28;20048;-69
2021/03/23 10:59:10;;;;;;;9.50;6.55;;;282.00;947.20;;;;;;5072666;28;20477;-68
2021/03/23 11:01:37;;;;;;;13.18;6.90;;;282.00;947.20;;;;;;5072663;28;20060;-68
2021/03/23 11:04:18;;;;;;;14.25;6.90;;;281.90;921.60;;;;;;5072267;28;20100;-67
2021/03/23 11:06:44;;;;;;;12.65;6.75;;;282.00;921.60;;;;;;5072896;28;20024;-75
2021/03/23 11:09:15;;;;;;;17.60;7.93;;;282.00;896.00;;;;;;5072324;28;20028;-69
2021/03/23 11:11:41;;;;;;;9.85;4.97;;;282.00;921.60;;;;;;5082110;28;20488;-71
2021/03/23 11:14:07;;;;;;;10.32;6.25;;;282.10;896.00;;;;;;5092084;28;20039;-66
2021/03/23 11:16:35;;;;;;;7.85;4.47;;;282.30;921.60;;;;;;5092974;28;20024;-69
2021/03/23 11:19:11;;;;;;;6.70;3.58;;;282.30;921.60;;;;;;5092609;28;20546;-68
2021/03/23 11:21:39;;;;;;;6.40;3.60;;;282.10;896.00;;;;;;5092502;28;20036;-71
2021/03/23 11:24:07;;;;;;;9.32;4.85;;;282.10;921.60;;;;;;5092530;28;20024;-69
2021/03/23 11:26:32;;;;;;;11.10;5.15;;;282.20;947.20;;;;;;5092617;28;20099;-71
2021/03/23 11:29:05;;;;;;;25.13;10.77;;;282.20;921.60;;;;;;5092922;28;20480;-72
2021/03/23 11:31:33;;;;;;;47.83;20.25;;;282.30;896.00;;;;;;5092269;28;20036;-64
2021/03/23 11:34:01;;;;;;;15.40;7.35;;;282.10;896.00;;;;;;5092706;28;20031;-71
2021/03/23 11:36:28;;;;;;;9.30;4.10;;;282.30;870.40;;;;;;5092418;28;20024;-70
2021/03/23 11:38:55;;;;;;;72.70;25.13;;;282.40;870.40;;;;;;5092730;28;20031;-72
2021/03/23 11:41:44;;;;;;;125.82;41.97;;;282.30;870.40;;;;;;5091881;28;20027;-72
2021/03/23 11:44:16;;;;;;;18.33;7.60;;;282.30;896.00;;;;;;5092569;28;20023;-71
2021/03/23 11:47:04;;;;;;;7.85;4.50;;;307.20;896.00;;;;;;5070085;28;20388;-70
2021/03/23 11:49:48;;;;;;;13.57;10.27;;;307.30;870.40;;;;;;5080180;28;20104;-72
2021/03/23 11:52:15;;;;;;;30.17;11.93;;;307.40;870.40;;;;;;5073643;28;20028;-70
2021/03/23 11:54:41;;;;;;;9.02;4.57;;;307.40;870.40;;;;;;5078828;28;20025;-71
2021/03/23 11:57:07;;;;;;;7.45;3.75;;;307.40;896.00;;;;;;5088482;28;20077;-71
2021/03/23 11:59:33;;;;;;;10.63;6.28;;;307.20;896.00;;;;;;5095254;28;20024;-68
2021/03/23 12:01:59;;;;;;;10.30;5.38;;;282.50;870.40;;;;;;5094072;28;20042;-69
2021/03/23 12:04:25;;;;;;;16.55;5.70;;;282.50;896.00;;;;;;5095254;28;20020;-72
2021/03/23 12:06:54;;;;;;;12.20;5.68;;;307.20;921.60;;;;;;5089138;28;20023;-68
2021/03/23 12:09:33;;;;;;;10.15;6.00;;;307.30;921.60;;;;;;5083532;28;20016;-72
2021/03/23 12:12:24;;;;;;;6.10;3.83;;;307.40;896.00;;;;;;5089282;28;20016;-72
2021/03/23 12:15:05;;;;;;;8.50;4.68;;;307.60;896.00;;;;;;5090543;28;20465;-73
2021/03/23 12:17:35;;;;;;;5.95;3.75;;;307.70;870.40;;;;;;5087994;28;20078;-72
2021/03/23 12:20:08;;;;;;;20.50;9.82;;;307.50;844.80;;;;;;5078494;28;20016;-72
2021/03/23 12:22:34;;;;;;;11.05;6.63;;;307.50;844.80;;;;;;5093675;28;20113;-73
2021/03/23 12:25:02;;;;;;;5.65;3.38;;;307.50;844.80;;;;;;5085048;28;20102;-72
2021/03/23 12:27:29;;;;;;;326.83;251.32;;;307.50;844.80;;;;;;5087072;28;20107;-72
2021/03/23 12:29:55;;;;;;;23.80;15.88;;;307.50;870.40;;;;;;5088077;28;20601;-72
2021/03/23 12:32:22;;;;;;;13.80;9.23;;;307.50;870.40;;;;;;5098429;28;20028;-72
2021/03/23 12:34:49;;;;;;;7.78;4.50;;;307.30;870.40;;;;;;5096932;28;20021;-71
2021/03/23 12:37:16;;;;;;;21.58;12.00;;;307.20;870.40;;;;;;5096887;28;20534;-66
2021/03/23 12:39:42;;;;;;;8.43;4.70;;;307.20;896.00;;;;;;5086366;28;20458;-72
2021/03/23 12:42:11;;;;;;;7.05;3.47;;;307.20;896.00;;;;;;5083296;28;20554;-70
2021/03/23 12:44:36;;;;;;;8.23;5.75;;;282.40;819.20;;;;;;5081022;28;20013;-71